Time;durP1;ratioP1;P1;durP2;ratioP2;P2;SDS_P1;SDS_P2;PMS_P1;PMS_P2;Temp;Humidity;BMP_temperature;BMP_pressure;BME280_temperature;BME280_humidity;BME280_pressure;Samples;Min_cycle;Max_cycle;Signal;HPM_P1;HPM_P2
2022/10/31 00:00:44;;;;;;;160.02;70.18;;;358.60;2329.60;;;;;;5097746;28;20031;-76
2022/10/31 00:03:10;;;;;;;159.27;67.28;;;358.60;2329.60;;;;;;5095586;28;20032;-81
2022/10/31 00:05:39;;;;;;;164.60;70.15;;;358.60;2329.60;;;;;;5094629;28;20066;-76
2022/10/31 00:08:05;;;;;;;152.02;68.57;;;358.60;2329.60;;;;;;5133700;27;20024;-75
2022/10/31 00:10:31;;;;;;;159.75;69.00;;;358.60;2329.60;;;;;;5094173;28;20374;-77
2022/10/31 00:12:56;;;;;;;164.43;70.13;;;358.70;2329.60;;;;;;5098983;28;20094;-75
2022/10/31 00:15:22;;;;;;;157.77;67.35;;;358.70;2329.60;;;;;;5095147;27;20066;-78
2022/10/31 00:17:48;;;;;;;153.90;66.05;;;358.80;2329.60;;;;;;5103595;28;20023;-76
2022/10/31 00:20:14;;;;;;;159.88;64.78;;;358.80;2329.60;;;;;;5092736;28;20111;-76
2022/10/31 00:22:39;;;;;;;143.20;62.42;;;358.70;2329.60;;;;;;5133869;27;20108;-76
2022/10/31 00:25:05;;;;;;;146.10;63.80;;;358.60;2329.60;;;;;;5133790;27;20046;-76
2022/10/31 00:27:31;;;;;;;136.32;61.28;;;358.60;2329.60;;;;;;5102428;28;20035;-76
2022/10/31 00:29:56;;;;;;;143.77;63.17;;;358.60;2329.60;;;;;;5133729;27;20032;-76
2022/10/31 00:32:22;;;;;;;140.48;60.38;;;358.60;2329.60;;;;;;5103862;28;20072;-76
2022/10/31 00:34:48;;;;;;;136.00;57.00;;;358.70;2329.60;;;;;;5101868;28;20020;-76
2022/10/31 00:37:13;;;;;;;149.95;63.15;;;358.70;2329.60;;;;;;5102449;28;20063;-76
2022/10/31 00:39:39;;;;;;;158.48;64.82;;;358.60;2329.60;;;;;;5130738;27;20542;-80
2022/10/31 00:42:05;;;;;;;152.02;65.25;;;358.70;2329.60;;;;;;5134254;27;20024;-79
2022/10/31 00:44:30;;;;;;;144.70;64.28;;;358.70;2329.60;;;;;;5093693;28;20034;-76
2022/10/31 00:46:56;;;;;;;157.27;67.43;;;358.70;2329.60;;;;;;5099951;28;20396;-76
2022/10/31 00:49:22;;;;;;;158.70;67.82;;;358.70;2329.60;;;;;;5095578;28;20465;-79
2022/10/31 00:51:48;;;;;;;164.80;67.63;;;358.70;2329.60;;;;;;5139660;27;20027;-76
2022/10/31 00:54:13;;;;;;;161.93;67.22;;;358.60;2329.60;;;;;;5133713;27;20016;-76
2022/10/31 00:56:39;;;;;;;165.07;63.25;;;358.60;2329.60;;;;;;5136113;27;20030;-76
2022/10/31 00:59:05;;;;;;;167.32;67.45;;;358.60;2329.60;;;;;;5091073;28;20027;-76
2022/10/31 01:01:30;;;;;;;160.50;65.00;;;358.60;2329.60;;;;;;5105988;28;20024;-76
2022/10/31 01:03:56;;;;;;;152.07;64.88;;;358.50;2329.60;;;;;;5133391;27;20150;-78
2022/10/31 01:06:22;;;;;;;151.38;63.13;;;358.50;2329.60;;;;;;5133418;27;20065;-76
2022/10/31 01:08:48;;;;;;;136.63;58.17;;;358.50;2329.60;;;;;;5094996;28;20095;-77
2022/10/31 01:11:22;;;;;;;134.93;55.70;;;358.50;2329.60;;;;;;5133169;27;20128;-76
2022/10/31 01:13:51;;;;;;;128.43;54.30;;;358.60;2329.60;;;;;;5138372;27;20045;-78
2022/10/31 01:16:19;;;;;;;136.10;56.63;;;358.50;2329.60;;;;;;5125043;27;20024;-77
2022/10/31 01:18:45;;;;;;;136.57;57.72;;;358.50;2329.60;;;;;;5097883;28;20016;-76
2022/10/31 01:21:19;;;;;;;138.75;59.00;;;358.60;2329.60;;;;;;5092578;28;20098;-76
2022/10/31 01:23:45;;;;;;;150.63;60.50;;;358.60;2329.60;;;;;;5091019;28;20024;-76
2022/10/31 01:26:20;;;;;;;147.48;59.97;;;358.50;2329.60;;;;;;5091967;28;20107;-76
2022/10/31 01:28:51;;;;;;;143.98;59.40;;;358.50;2329.60;;;;;;5098442;28;21636;-76
2022/10/31 01:31:19;;;;;;;155.02;60.35;;;358.50;2329.60;;;;;;5098252;28;20070;-76
2022/10/31 01:33:46;;;;;;;137.15;57.55;;;358.50;2329.60;;;;;;5109358;28;20485;-76
2022/10/31 01:36:21;;;;;;;142.25;58.80;;;358.50;2329.60;;;;;;5094459;28;20027;-76
2022/10/31 01:38:48;;;;;;;130.90;55.03;;;358.50;2329.60;;;;;;5135753;27;20032;-76
2022/10/31 01:41:17;;;;;;;125.93;55.10;;;333.70;2329.60;;;;;;5096795;28;20027;-79
2022/10/31 01:43:58;;;;;;;118.00;51.67;;;358.40;2329.60;;;;;;5097126;28;20036;-80
2022/10/31 01:46:27;;;;;;;138.80;56.60;;;333.70;2329.60;;;;;;5096257;28;20027;-76
2022/10/31 01:48:55;;;;;;;134.05;54.53;;;333.70;2329.60;;;;;;5089076;28;20388;-76
2022/10/31 01:51:25;;;;;;;130.88;54.58;;;333.60;2329.60;;;;;;5096241;28;20016;-80
2022/10/31 01:53:54;;;;;;;138.00;56.67;;;333.60;2329.60;;;;;;5097317;28;20024;-76
2022/10/31 01:56:20;;;;;;;144.55;56.10;;;333.70;2329.60;;;;;;5104920;27;20039;-79
2022/10/31 01:58:46;;;;;;;133.27;54.45;;;333.70;2329.60;;;;;;5107702;28;20035;-76
2022/10/31 02:01:14;;;;;;;121.28;53.15;;;333.70;2329.60;;;;;;5105742;27;20035;-76
2022/10/31 02:03:40;;;;;;;137.52;54.38;;;358.40;2329.60;;;;;;5093785;28;20024;-76
2022/10/31 02:06:13;;;;;;;128.98;53.45;;;358.40;2329.60;;;;;;5108935;28;20066;-76
2022/10/31 02:08:40;;;;;;;137.65;54.63;;;358.50;2329.60;;;;;;5107627;27;20099;-76
2022/10/31 02:11:07;;;;;;;129.38;55.13;;;358.40;2329.60;;;;;;5094712;28;20126;-76
2022/10/31 02:13:34;;;;;;;132.95;52.90;;;358.40;2329.60;;;;;;5136399;27;20024;-76
2022/10/31 02:16:00;;;;;;;132.18;52.58;;;358.40;2329.60;;;;;;5136455;27;20031;-76
2022/10/31 02:18:29;;;;;;;129.32;52.15;;;358.40;2329.60;;;;;;5100598;28;20094;-80
2022/10/31 02:21:19;;;;;;;132.98;51.97;;;358.40;2329.60;;;;;;5136272;27;20023;-77
2022/10/31 02:24:06;;;;;;;118.28;50.53;;;358.40;2329.60;;;;;;5093320;28;20085;-80
2022/10/31 02:26:44;;;;;;;133.25;52.30;;;333.70;2329.60;;;;;;5094225;28;20024;-76
2022/10/31 02:29:25;;;;;;;111.60;48.53;;;333.70;2329.60;;;;;;5099083;28;20485;-79
2022/10/31 02:31:58;;;;;;;124.90;48.97;;;333.70;2329.60;;;;;;5096683;28;20110;-76
2022/10/31 02:34:52;;;;;;;130.65;47.88;;;333.70;2329.60;;;;;;5135901;27;20523;-76
2022/10/31 02:37:47;;;;;;;111.80;47.38;;;333.70;2329.60;;;;;;5095593;28;20424;-76
2022/10/31 02:40:24;;;;;;;118.80;49.55;;;333.70;2329.60;;;;;;5103692;28;20615;-76
2022/10/31 02:42:50;;;;;;;121.10;50.45;;;333.70;2329.60;;;;;;5099900;28;20024;-76
2022/10/31 02:45:40;;;;;;;121.53;48.58;;;333.70;2329.60;;;;;;5102946;27;20031;-79
2022/10/31 02:48:14;;;;;;;104.35;44.78;;;333.60;2329.60;;;;;;5082818;28;20108;-76
2022/10/31 02:50:43;;;;;;;120.53;45.88;;;333.60;2329.60;;;;;;5099245;28;20016;-81
2022/10/31 02:53:09;;;;;;;112.57;48.05;;;333.40;2329.60;;;;;;5135226;27;20027;-80
2022/10/31 02:55:34;;;;;;;119.85;48.65;;;333.50;2329.60;;;;;;5095989;28;20036;-80
2022/10/31 02:58:13;;;;;;;115.55;48.22;;;333.50;2329.60;;;;;;5099924;28;20027;-76
2022/10/31 03:00:58;;;;;;;119.65;48.72;;;333.60;2329.60;;;;;;5097094;28;20044;-76
2022/10/31 03:03:41;;;;;;;125.22;50.38;;;333.50;2329.60;;;;;;5093876;28;20060;-81
2022/10/31 03:06:20;;;;;;;126.75;50.40;;;333.50;2329.60;;;;;;5099974;28;20047;-77
2022/10/31 03:08:53;;;;;;;146.95;55.10;;;333.50;2329.60;;;;;;5094023;28;20038;-75
2022/10/31 03:11:23;;;;;;;124.28;52.45;;;333.50;2329.60;;;;;;5109728;27;20033;-76
2022/10/31 03:13:58;;;;;;;146.50;52.80;;;333.50;2329.60;;;;;;5137853;27;20073;-76
2022/10/31 03:16:45;;;;;;;149.30;56.05;;;333.50;2329.60;;;;;;5092444;28;20020;-80
2022/10/31 03:19:32;;;;;;;;;;;333.50;2329.60;;;;;;5131467;27;20032;-76
2022/10/31 03:22:22;;;;;;;138.50;55.00;;;333.50;2329.60;;;;;;5096438;28;19908;-76
2022/10/31 03:24:49;;;;;;;144.63;53.40;;;333.50;2329.60;;;;;;5136401;27;20073;-76
2022/10/31 03:27:18;;;;;;;133.43;52.42;;;333.50;2329.60;;;;;;5099374;28;20024;-77
2022/10/31 03:29:45;;;;;;;141.90;52.45;;;333.50;2329.60;;;;;;5131937;27;20016;-80
2022/10/31 03:32:16;;;;;;;125.60;54.47;;;333.40;2329.60;;;;;;5099236;28;20142;-78
2022/10/31 03:34:45;;;;;;;141.63;54.55;;;333.40;2329.60;;;;;;5097962;28;20027;-77
2022/10/31 03:37:14;;;;;;;147.05;55.40;;;333.40;2329.60;;;;;;5137131;27;20051;-76
2022/10/31 03:39:42;;;;;;;137.02;54.95;;;333.40;2329.60;;;;;;5109188;27;20028;-78
2022/10/31 03:42:29;;;;;;;135.23;51.10;;;333.50;2329.60;;;;;;5134680;27;20028;-76
2022/10/31 03:45:06;;;;;;;143.52;54.33;;;333.50;2329.60;;;;;;5131127;27;20032;-75
2022/10/31 03:47:34;;;;;;;150.65;58.20;;;333.50;2329.60;;;;;;5091910;28;20462;-76
2022/10/31 03:50:00;;;;;;;141.65;55.40;;;333.50;2329.60;;;;;;5094587;28;20077;-76
2022/10/31 03:52:31;;;;;;;145.98;58.17;;;333.50;2329.60;;;;;;5097817;28;20024;-76
2022/10/31 03:55:09;;;;;;;146.98;55.20;;;333.60;2329.60;;;;;;5098511;28;20028;-76
2022/10/31 03:57:38;;;;;;;150.55;55.58;;;333.60;2329.60;;;;;;5134786;27;20469;-76
2022/10/31 04:00:12;;;;;;;150.60;55.92;;;333.60;2329.60;;;;;;5103356;28;20033;-76
2022/10/31 04:02:50;;;;;;;119.13;48.25;;;333.60;2329.60;;;;;;5134001;27;20019;-76
2022/10/31 04:05:18;;;;;;;123.55;51.85;;;333.60;2329.60;;;;;;5098807;28;20027;-78
2022/10/31 04:07:47;;;;;;;112.70;48.22;;;333.70;2329.60;;;;;;5096505;28;20019;-76
2022/10/31 04:10:15;;;;;;;120.00;49.10;;;333.60;2329.60;;;;;;5099579;28;20038;-76
2022/10/31 04:12:45;;;;;;;128.00;53.05;;;333.50;2329.60;;;;;;5100072;28;20040;-79
2022/10/31 04:15:11;;;;;;;123.15;51.70;;;333.60;2329.60;;;;;;5095580;28;20078;-77
2022/10/31 04:17:41;;;;;;;130.43;51.28;;;358.60;2329.60;;;;;;5137249;27;20397;-77
2022/10/31 04:20:08;;;;;;;123.47;50.85;;;333.40;2329.60;;;;;;5089096;28;20028;-76
2022/10/31 04:22:34;;;;;;;126.47;52.50;;;333.50;2329.60;;;;;;5091387;28;20488;-76
2022/10/31 04:24:59;;;;;;;135.85;53.15;;;333.50;2329.60;;;;;;5133640;27;20059;-77
2022/10/31 04:27:25;;;;;;;129.23;54.30;;;333.50;2329.60;;;;;;5096418;28;20483;-80
2022/10/31 04:29:51;;;;;;;136.50;52.47;;;333.50;2329.60;;;;;;5105496;28;20020;-76
2022/10/31 04:32:17;;;;;;;116.13;51.05;;;333.40;2329.60;;;;;;5139258;27;20036;-80
2022/10/31 04:34:43;;;;;;;143.20;53.50;;;333.40;2329.60;;;;;;5096974;28;20050;-78
2022/10/31 04:37:08;;;;;;;142.75;51.20;;;333.40;2329.60;;;;;;5100657;28;20020;-75
2022/10/31 04:39:34;;;;;;;134.48;52.20;;;333.30;2329.60;;;;;;5104407;28;20491;-76
2022/10/31 04:42:00;;;;;;;144.73;52.42;;;333.40;2329.60;;;;;;5094356;27;20040;-76
2022/10/31 04:44:25;;;;;;;139.85;53.58;;;333.30;2329.60;;;;;;5100779;28;20036;-77
2022/10/31 04:46:51;;;;;;;142.77;52.78;;;333.20;1996.80;;;;;;5093362;28;20537;-77
2022/10/31 04:49:17;;;;;;;129.23;52.78;;;333.20;2329.60;;;;;;5096725;28;20031;-76
2022/10/31 04:51:42;;;;;;;135.18;52.92;;;333.20;2329.60;;;;;;5130569;27;20028;-76
2022/10/31 04:54:08;;;;;;;129.73;48.05;;;333.20;2252.80;;;;;;5092122;28;20032;-77
2022/10/31 04:56:34;;;;;;;131.45;48.67;;;333.10;2073.60;;;;;;5093451;28;20020;-76
2022/10/31 04:59:00;;;;;;;129.25;49.90;;;333.10;2201.60;;;;;;5127728;27;20441;-76
2022/10/31 05:01:26;;;;;;;137.20;49.03;;;333.20;2329.60;;;;;;5111178;27;20051;-76
2022/10/31 05:03:51;;;;;;;128.75;51.83;;;333.30;2176.00;;;;;;5101836;27;20036;-75
2022/10/31 05:06:17;;;;;;;121.97;48.47;;;333.30;1945.60;;;;;;5093194;28;20034;-75
2022/10/31 05:08:43;;;;;;;117.80;48.13;;;333.40;2329.60;;;;;;5096014;28;20067;-76
2022/10/31 05:11:08;;;;;;;120.85;48.75;;;333.40;2329.60;;;;;;5097243;28;20040;-77
2022/10/31 05:13:34;;;;;;;120.32;48.30;;;333.50;2329.60;;;;;;5098876;28;20036;-80
2022/10/31 05:16:00;;;;;;;118.28;47.33;;;333.50;2329.60;;;;;;5096192;28;20024;-78
2022/10/31 05:18:26;;;;;;;124.97;50.25;;;333.40;2329.60;;;;;;5093170;28;20021;-81
2022/10/31 05:20:51;;;;;;;105.47;46.50;;;333.40;2329.60;;;;;;5130492;27;20367;-76
2022/10/31 05:23:17;;;;;;;115.78;46.60;;;333.40;2329.60;;;;;;5095880;28;20554;-77
2022/10/31 05:25:43;;;;;;;124.85;46.75;;;333.40;2329.60;;;;;;5132666;27;20067;-81
2022/10/31 05:28:08;;;;;;;109.78;47.08;;;333.40;2329.60;;;;;;5095734;28;20038;-77
2022/10/31 05:30:34;;;;;;;124.30;49.50;;;333.40;2329.60;;;;;;5099980;28;20034;-79
2022/10/31 05:33:01;;;;;;;113.95;47.33;;;333.50;2329.60;;;;;;5130247;27;20032;-82
2022/10/31 05:35:32;;;;;;;122.40;48.38;;;333.40;2329.60;;;;;;5136115;27;20427;-77
2022/10/31 05:37:58;;;;;;;119.50;47.67;;;333.40;2329.60;;;;;;5105560;28;20089;-77
2022/10/31 05:40:26;;;;;;;123.03;47.95;;;333.40;2329.60;;;;;;5102100;28;20039;-78
2022/10/31 05:42:53;;;;;;;135.95;48.10;;;333.40;2329.60;;;;;;5095866;28;20512;-77
2022/10/31 05:45:19;;;;;;;121.15;46.92;;;333.40;2329.60;;;;;;5135156;27;20036;-77
2022/10/31 05:47:55;;;;;;;115.28;44.85;;;333.40;1971.20;;;;;;5096367;28;20471;-77
2022/10/31 05:50:22;;;;;;;102.22;44.80;;;333.30;2329.60;;;;;;5103874;28;20111;-77
2022/10/31 05:52:58;;;;;;;105.47;43.03;;;333.30;2329.60;;;;;;5098515;28;20046;-77
2022/10/31 05:55:25;;;;;;;103.00;39.83;;;333.20;2329.60;;;;;;5135670;27;20020;-78
2022/10/31 05:57:52;;;;;;;99.78;39.95;;;333.10;2329.60;;;;;;5129992;27;20027;-77
2022/10/31 06:00:18;;;;;;;98.18;39.45;;;333.10;1971.20;;;;;;5091505;28;20449;-78
2022/10/31 06:02:44;;;;;;;98.43;40.05;;;333.10;2073.60;;;;;;5098034;28;20068;-82
2022/10/31 06:05:10;;;;;;;96.35;40.67;;;333.00;2073.60;;;;;;5096965;28;20051;-78
2022/10/31 06:07:36;;;;;;;94.43;39.25;;;333.10;2329.60;;;;;;5129670;27;20020;-81
2022/10/31 06:10:04;;;;;;;82.53;38.63;;;333.10;2329.60;;;;;;5129576;27;20028;-77
2022/10/31 06:12:30;;;;;;;89.38;37.58;;;333.10;2278.40;;;;;;5134495;27;20051;-81
2022/10/31 06:14:55;;;;;;;84.10;37.83;;;333.10;2329.60;;;;;;5135381;27;20024;-78
2022/10/31 06:17:21;;;;;;;85.05;37.55;;;333.20;2329.60;;;;;;5135312;27;20504;-76
2022/10/31 06:19:47;;;;;;;87.72;37.13;;;333.10;2201.60;;;;;;5134321;27;20091;-76
2022/10/31 06:22:13;;;;;;;82.53;36.40;;;333.10;2329.60;;;;;;5095658;28;20030;-75
2022/10/31 06:24:39;;;;;;;100.25;38.70;;;333.20;2329.60;;;;;;5089499;28;20031;-76
2022/10/31 06:27:05;;;;;;;76.53;34.83;;;333.20;2329.60;;;;;;5099656;28;20047;-80
2022/10/31 06:29:31;;;;;;;91.75;38.50;;;333.20;2329.60;;;;;;5101899;28;20032;-78
2022/10/31 06:31:57;;;;;;;84.85;37.78;;;333.30;2329.60;;;;;;5135372;27;20185;-78
2022/10/31 06:34:23;;;;;;;88.68;37.28;;;333.30;2329.60;;;;;;5132440;27;20032;-76
2022/10/31 06:36:49;;;;;;;92.68;36.10;;;333.30;2329.60;;;;;;5095588;28;20432;-74
2022/10/31 06:39:15;;;;;;;78.25;36.72;;;333.30;2329.60;;;;;;5134387;27;20551;-77
2022/10/31 06:41:41;;;;;;;78.82;35.05;;;333.30;2329.60;;;;;;5110047;28;20019;-76
2022/10/31 06:44:07;;;;;;;83.57;36.35;;;333.40;2329.60;;;;;;5137492;27;20055;-77
2022/10/31 06:46:34;;;;;;;76.80;34.20;;;333.40;2329.60;;;;;;5103508;28;20027;-74
2022/10/31 06:48:59;;;;;;;75.35;34.90;;;333.30;2329.60;;;;;;5097466;28;20031;-77
2022/10/31 06:51:25;;;;;;;82.97;35.72;;;333.20;2329.60;;;;;;5105630;27;20449;-75
2022/10/31 06:53:51;;;;;;;77.85;36.35;;;333.30;2329.60;;;;;;5127878;27;20036;-77
2022/10/31 06:56:17;;;;;;;81.88;36.38;;;333.30;2329.60;;;;;;5094836;28;20092;-77
2022/10/31 06:58:42;;;;;;;79.80;35.45;;;333.30;2329.60;;;;;;5127875;27;20028;-75
2022/10/31 07:01:10;;;;;;;79.20;33.08;;;333.20;2329.60;;;;;;5108932;28;20024;-75
2022/10/31 07:03:35;;;;;;;80.15;35.17;;;333.10;2329.60;;;;;;5094888;28;20469;-75
2022/10/31 07:06:01;;;;;;;84.28;34.25;;;333.30;2329.60;;;;;;5094478;28;20032;-79
2022/10/31 07:08:27;;;;;;;77.68;33.47;;;333.30;2329.60;;;;;;5094515;28;20043;-74
2022/10/31 07:10:55;;;;;;;73.82;34.83;;;333.30;2329.60;;;;;;5095654;28;20036;-77
2022/10/31 07:13:25;;;;;;;78.32;34.63;;;333.40;2329.60;;;;;;5096720;28;20039;-74
2022/10/31 07:15:52;;;;;;;85.63;37.10;;;333.40;2329.60;;;;;;5099756;28;20020;-79
2022/10/31 07:18:18;;;;;;;83.30;36.00;;;333.40;2329.60;;;;;;5093516;28;20046;-75
2022/10/31 07:42:06;;;;;;;81.53;38.70;;;333.00;2329.60;;;;;;5122215;27;20379;-77
2022/10/31 07:44:32;;;;;;;82.57;36.03;;;358.50;2329.60;;;;;;5105927;28;20469;-76
2022/10/31 07:46:57;;;;;;;85.78;37.03;;;358.50;2329.60;;;;;;5121771;28;20023;-77
2022/10/31 07:49:25;;;;;;;87.22;38.03;;;333.70;2329.60;;;;;;5107982;28;20103;-79
2022/10/31 07:51:51;;;;;;;82.57;37.15;;;333.70;2329.60;;;;;;5125330;28;20035;-75
2022/10/31 07:54:16;;;;;;;84.68;35.95;;;333.70;2329.60;;;;;;5107481;28;20028;-77
2022/10/31 07:56:42;;;;;;;72.90;35.28;;;333.70;2329.60;;;;;;5108621;28;20030;-78
2022/10/31 07:59:08;;;;;;;98.45;36.50;;;358.40;2329.60;;;;;;5108651;28;20051;-79
2022/10/31 08:01:33;;;;;;;87.57;36.30;;;333.70;2329.60;;;;;;5107407;28;20078;-76
2022/10/31 08:03:59;;;;;;;72.72;32.60;;;333.60;2329.60;;;;;;5108807;28;20385;-77
2022/10/31 08:06:25;;;;;;;79.20;33.45;;;333.50;2329.60;;;;;;5104667;28;20288;-79
2022/10/31 08:08:51;;;;;;;81.10;35.00;;;333.50;2329.60;;;;;;5104448;28;20032;-80
2022/10/31 08:11:16;;;;;;;87.70;36.08;;;333.60;2329.60;;;;;;5107689;28;20484;-78
2022/10/31 08:13:42;;;;;;;87.70;38.05;;;333.70;2329.60;;;;;;5107499;28;20096;-79
2022/10/31 08:16:08;;;;;;;85.43;36.35;;;333.70;2329.60;;;;;;5108121;28;20070;-79
2022/10/31 08:18:34;;;;;;;93.18;36.85;;;358.40;2329.60;;;;;;5107857;28;20063;-78
2022/10/31 08:20:59;;;;;;;80.40;33.53;;;358.40;2329.60;;;;;;5107972;28;20051;-77
2022/10/31 08:23:25;;;;;;;71.38;32.83;;;358.40;2329.60;;;;;;5108188;28;20036;-79
2022/10/31 08:25:51;;;;;;;75.70;34.17;;;358.40;2329.60;;;;;;5107652;28;20603;-76
2022/10/31 08:28:16;;;;;;;74.07;32.55;;;358.40;2329.60;;;;;;5108031;28;20031;-81
2022/10/31 08:30:42;;;;;;;71.05;31.88;;;358.40;2329.60;;;;;;5108431;28;20067;-81
2022/10/31 08:33:17;;;;;;;68.50;29.30;;;333.70;2329.60;;;;;;5110734;28;20020;-80
2022/10/31 08:35:43;;;;;;;69.97;30.20;;;333.60;2329.60;;;;;;5108315;28;20392;-80
2022/10/31 08:38:11;;;;;;;74.43;32.05;;;333.60;2329.60;;;;;;5108216;28;20579;-81
2022/10/31 08:40:37;;;;;;;81.15;34.30;;;333.50;2329.60;;;;;;5108405;28;20105;-80
2022/10/31 08:43:14;;;;;;;73.60;30.42;;;333.50;2329.60;;;;;;5080466;28;20016;-79
2022/10/31 08:45:41;;;;;;;61.90;30.60;;;333.70;2329.60;;;;;;5094558;28;20429;-80
2022/10/31 08:48:11;;;;;;;77.63;32.80;;;333.50;2329.60;;;;;;5095968;28;20044;-77
2022/10/31 08:50:38;;;;;;;61.22;29.50;;;333.50;2329.60;;;;;;5095194;28;20032;-79
2022/10/31 08:53:12;;;;;;;69.90;30.75;;;358.80;2329.60;;;;;;5096065;28;20085;-75
2022/10/31 08:55:39;;;;;;;66.63;29.77;;;333.60;2329.60;;;;;;5096306;28;20024;-77
2022/10/31 08:58:07;;;;;;;60.60;28.30;;;333.70;2329.60;;;;;;5096175;28;20024;-78
2022/10/31 09:00:34;;;;;;;68.30;30.98;;;358.40;2329.60;;;;;;5095791;28;20024;-79
2022/10/31 09:03:02;;;;;;;68.65;31.58;;;358.50;2329.60;;;;;;5095089;28;20028;-79
2022/10/31 09:05:28;;;;;;;68.55;28.80;;;358.40;2329.60;;;;;;5092414;28;20362;-80
2022/10/31 09:07:58;;;;;;;72.10;31.60;;;358.40;2329.60;;;;;;5095762;28;20052;-80
2022/10/31 09:10:25;;;;;;;67.32;31.20;;;358.50;2329.60;;;;;;5088079;28;20062;-80
2022/10/31 09:13:03;;;;;;;69.40;28.73;;;358.60;2329.60;;;;;;5092183;28;20036;-79
2022/10/31 09:15:30;;;;;;;71.72;32.50;;;358.60;2329.60;;;;;;5094160;28;20035;-80
2022/10/31 09:17:56;;;;;;;77.65;40.63;;;358.60;2329.60;;;;;;5095424;28;20032;-78
2022/10/31 09:20:22;;;;;;;74.18;31.65;;;358.70;2329.60;;;;;;5096456;28;20074;-78
2022/10/31 09:22:48;;;;;;;75.18;32.85;;;358.70;2329.60;;;;;;5109222;28;20393;-79
2022/10/31 09:25:13;;;;;;;67.68;32.50;;;358.80;2329.60;;;;;;5094091;28;20035;-79
2022/10/31 09:27:39;;;;;;;69.20;30.92;;;358.80;2329.60;;;;;;5094406;28;20036;-81
2022/10/31 09:30:05;;;;;;;68.90;29.83;;;358.80;2329.60;;;;;;5095853;28;20053;-81
2022/10/31 09:32:31;;;;;;;79.30;31.83;;;358.60;2329.60;;;;;;5097558;28;20031;-81
2022/10/31 09:34:57;;;;;;;72.68;32.50;;;358.90;2329.60;;;;;;5094469;28;20388;-82
2022/10/31 09:37:22;;;;;;;80.32;43.67;;;358.90;2329.60;;;;;;5093929;28;20027;-83
2022/10/31 09:39:48;;;;;;;78.00;35.40;;;358.90;2329.60;;;;;;5090911;28;20538;-81
2022/10/31 09:42:39;;;;;;;72.10;31.20;;;359.00;2329.60;;;;;;5093918;28;20423;-80
2022/10/31 09:45:38;;;;;;;67.63;30.38;;;358.90;2329.60;;;;;;5089279;28;20013;-85
2022/10/31 09:48:21;;;;;;;66.10;30.08;;;359.00;2329.60;;;;;;5089725;28;20097;-85
2022/10/31 09:51:00;;;;;;;70.43;31.60;;;359.00;2329.60;;;;;;5076182;28;20044;-80
2022/10/31 09:53:37;;;;;;;78.75;32.55;;;359.00;2329.60;;;;;;5093798;28;20025;-83
2022/10/31 09:56:16;;;;;;;70.63;32.60;;;359.10;2329.60;;;;;;5076132;28;20082;-80
2022/10/31 09:58:45;;;;;;;81.25;37.63;;;359.00;2329.60;;;;;;5075910;28;20389;-79
2022/10/31 10:01:46;;;;;;;69.82;33.97;;;359.10;2329.60;;;;;;5075733;28;20024;-79
2022/10/31 10:04:34;;;;;;;63.88;30.77;;;359.00;2329.60;;;;;;5057005;28;20043;-80
2022/10/31 10:07:05;;;;;;;71.32;31.75;;;358.90;2329.60;;;;;;5076139;28;20078;-79
2022/10/31 10:09:31;;;;;;;68.18;31.30;;;359.00;2329.60;;;;;;5075708;28;20048;-79
2022/10/31 10:12:02;;;;;;;65.70;29.83;;;359.00;2329.60;;;;;;5093483;28;20036;-78
2022/10/31 10:15:06;;;;;;;64.60;29.45;;;359.10;2329.60;;;;;;5091555;28;20060;-79
2022/10/31 10:18:00;;;;;;;60.33;31.17;;;359.10;2329.60;;;;;;5067199;28;20137;-80
2022/10/31 10:20:54;;;;;;;70.63;32.90;;;359.10;2329.60;;;;;;5107506;28;20020;-80
2022/10/31 10:23:34;;;;;;;74.22;31.10;;;359.20;2329.60;;;;;;5093096;28;20028;-78
2022/10/31 10:26:12;;;;;;;74.30;32.80;;;359.20;2329.60;;;;;;5092358;28;20032;-78
2022/10/31 10:28:41;;;;;;;76.22;32.40;;;384.00;2329.60;;;;;;5093317;28;20050;-80
2022/10/31 10:31:10;;;;;;;69.88;31.02;;;384.00;2329.60;;;;;;5092505;28;20032;-79
2022/10/31 10:33:40;;;;;;;70.60;32.95;;;384.00;2329.60;;;;;;5092925;28;20032;-79
2022/10/31 10:36:20;;;;;;;63.83;28.75;;;384.20;2329.60;;;;;;5083977;28;20067;-79
2022/10/31 10:39:35;;;;;;;70.10;29.27;;;384.10;2329.60;;;;;;5088471;28;20016;-78
2022/10/31 10:47:54;;;;;;;68.45;27.58;;;384.20;2329.60;;;;;;5011958;28;20068;-79
2022/10/31 10:50:34;;;;;;;69.82;27.73;;;384.40;2329.60;;;;;;4994898;28;20037;-79
2022/10/31 10:53:35;;;;;;;62.95;29.42;;;384.30;2329.60;;;;;;5005775;28;20061;-79
2022/10/31 10:56:03;;;;;;;58.10;28.17;;;384.10;2329.60;;;;;;4994787;28;20129;-79
2022/10/31 10:58:29;;;;;;;63.70;29.40;;;384.10;2329.60;;;;;;5008884;28;20072;-79
2022/10/31 11:00:55;;;;;;;65.18;29.92;;;384.20;2329.60;;;;;;4993865;28;20046;-79
2022/10/31 11:03:21;;;;;;;64.45;30.45;;;384.50;2329.60;;;;;;5005090;28;20077;-79
2022/10/31 11:06:01;;;;;;;64.88;29.13;;;384.90;2329.60;;;;;;4982286;28;20551;-79
2022/10/31 11:08:29;;;;;;;63.42;28.60;;;384.90;2329.60;;;;;;4992624;28;20109;-79
2022/10/31 11:11:09;;;;;;;56.47;28.75;;;384.70;2329.60;;;;;;5010814;28;20054;-79
2022/10/31 11:13:36;;;;;;;59.03;26.95;;;384.70;2329.60;;;;;;4994123;28;20026;-78
2022/10/31 11:16:11;;;;;;;62.75;28.65;;;384.60;2329.60;;;;;;5043821;28;20068;-78
2022/10/31 11:18:45;;;;;;;61.75;30.27;;;384.80;2329.60;;;;;;5091509;28;20035;-79
2022/10/31 11:21:33;;;;;;;63.13;28.88;;;409.70;2355.20;;;;;;5091341;28;20469;-80
2022/10/31 11:24:11;;;;;;;59.65;27.92;;;409.90;2355.20;;;;;;5108177;28;20030;-78
2022/10/31 11:26:39;;;;;;;61.92;28.88;;;410.20;2355.20;;;;;;5108479;28;20489;-78
2022/10/31 11:29:05;;;;;;;49.80;27.48;;;435.40;2355.20;;;;;;5093931;28;20069;-78
2022/10/31 11:31:34;;;;;;;51.22;27.17;;;435.80;2355.20;;;;;;5102210;28;20500;-78
2022/10/31 11:34:03;;;;;;;47.58;25.92;;;435.60;2355.20;;;;;;5089064;28;20026;-79
2022/10/31 11:36:38;;;;;;;62.42;28.00;;;436.00;2355.20;;;;;;5079697;28;20016;-78
2022/10/31 11:39:12;;;;;;;59.33;27.63;;;460.80;2380.80;;;;;;5091662;28;20017;-79
2022/10/31 11:41:38;;;;;;;58.58;29.17;;;436.10;2355.20;;;;;;5085139;28;20055;-79
2022/10/31 11:44:13;;;;;;;57.33;28.05;;;460.80;2380.80;;;;;;5091363;28;20029;-80
2022/10/31 11:46:42;;;;;;;59.70;26.15;;;436.00;2355.20;;;;;;5090853;28;20082;-80
2022/10/31 11:49:34;;;;;;;59.38;30.17;;;435.70;2355.20;;;;;;5091225;28;20107;-78
2022/10/31 11:52:27;;;;;;;62.40;30.20;;;435.50;2355.20;;;;;;5029824;28;20034;-78
2022/10/31 11:55:13;;;;;;;56.53;27.13;;;435.50;2355.20;;;;;;4971711;28;20039;-78
2022/10/31 11:57:53;;;;;;;64.22;30.23;;;435.20;2355.20;;;;;;4971205;28;20031;-78
2022/10/31 12:00:27;;;;;;;59.85;28.60;;;435.40;2355.20;;;;;;4971008;28;20578;-79
2022/10/31 12:03:05;;;;;;;62.30;28.88;;;435.50;2355.20;;;;;;4955708;28;20046;-80
2022/10/31 12:05:32;;;;;;;51.15;28.15;;;435.70;2355.20;;;;;;4955072;28;20042;-79
2022/10/31 12:07:58;;;;;;;53.92;27.58;;;435.90;2355.20;;;;;;4970621;28;20231;-78
2022/10/31 12:10:34;;;;;;;54.22;27.40;;;436.00;2355.20;;;;;;4954391;28;20046;-80
2022/10/31 12:13:32;;;;;;;48.28;25.27;;;460.80;2380.80;;;;;;4954895;28;20126;-80
2022/10/31 12:16:21;;;;;;;54.92;28.92;;;460.90;2380.80;;;;;;4954687;28;20078;-80
2022/10/31 12:19:13;;;;;;;68.70;34.38;;;461.00;2380.80;;;;;;4957672;28;20039;-79
2022/10/31 12:21:45;;;;;;;51.63;25.63;;;461.20;2380.80;;;;;;4958381;28;20027;-81
2022/10/31 12:24:33;;;;;;;49.08;25.27;;;461.20;2380.80;;;;;;4973961;28;20086;-81
2022/10/31 12:27:43;;;;;;;53.05;26.45;;;461.20;2380.80;;;;;;4957976;28;20477;-82
2022/10/31 12:30:09;;;;;;;52.47;26.85;;;461.20;2380.80;;;;;;4916424;29;20092;-80
2022/10/31 12:32:43;;;;;;;52.72;26.60;;;461.10;2380.80;;;;;;4961145;28;20034;-81
2022/10/31 12:35:27;;;;;;;59.65;30.70;;;460.90;2380.80;;;;;;4992086;28;20038;-79
2022/10/31 12:38:15;;;;;;;54.92;27.42;;;461.00;2380.80;;;;;;4987266;28;20027;-79
2022/10/31 12:40:50;;;;;;;54.90;27.38;;;460.90;2380.80;;;;;;4990776;28;20046;-79